sensor_id;sensor_type;location;lat;lon;timestamp;P1;durP1;ratioP1;P2;durP2;ratioP2
80565;SDS011;69915;54.862;10.730;2023-07-09T00:01:20;7.45;;;2.47;;
80565;SDS011;69915;54.862;10.730;2023-07-09T00:03:46;4.85;;;2.53;;
80565;SDS011;69915;54.862;10.730;2023-07-09T00:06:17;6.95;;;3.10;;
80565;SDS011;69915;54.862;10.730;2023-07-09T00:08:44;5.93;;;2.80;;
80565;SDS011;69915;54.862;10.730;2023-07-09T00:11:13;5.90;;;2.80;;
80565;SDS011;69915;54.862;10.730;2023-07-09T00:13:40;5.82;;;3.00;;
80565;SDS011;69915;54.862;10.730;2023-07-09T00:16:19;6.05;;;2.88;;
80565;SDS011;69915;54.862;10.730;2023-07-09T00:18:49;6.03;;;2.92;;
80565;SDS011;69915;54.862;10.730;2023-07-09T00:21:18;4.93;;;2.55;;
80565;SDS011;69915;54.862;10.730;2023-07-09T00:23:45;6.28;;;2.88;;
80565;SDS011;69915;54.862;10.730;2023-07-09T00:26:14;6.13;;;2.70;;
80565;SDS011;69915;54.862;10.730;2023-07-09T00:28:42;5.65;;;3.15;;
80565;SDS011;69915;54.862;10.730;2023-07-09T00:31:12;5.93;;;2.72;;
80565;SDS011;69915;54.862;10.730;2023-07-09T00:33:40;5.78;;;2.65;;
80565;SDS011;69915;54.862;10.730;2023-07-09T00:36:48;6.28;;;2.60;;
80565;SDS011;69915;54.862;10.730;2023-07-09T00:38:59;6.95;;;2.33;;
80565;SDS011;69915;54.862;10.730;2023-07-09T00:41:32;5.97;;;2.60;;
80565;SDS011;69915;54.862;10.730;2023-07-09T00:44:23;5.30;;;2.47;;
80565;SDS011;69915;54.862;10.730;2023-07-09T00:49:29;4.25;;;1.85;;
80565;SDS011;69915;54.862;10.730;2023-07-09T00:51:56;4.78;;;1.83;;
80565;SDS011;69915;54.862;10.730;2023-07-09T00:54:34;6.90;;;2.05;;
80565;SDS011;69915;54.862;10.730;2023-07-09T00:57:11;4.20;;;1.73;;
80565;SDS011;69915;54.862;10.730;2023-07-09T00:59:43;4.75;;;2.00;;
80565;SDS011;69915;54.862;10.730;2023-07-09T01:02:11;8.93;;;2.25;;
80565;SDS011;69915;54.862;10.730;2023-07-09T01:04:39;4.50;;;2.13;;
80565;SDS011;69915;54.862;10.730;2023-07-09T01:07:06;4.63;;;2.70;;
80565;SDS011;69915;54.862;10.730;2023-07-09T01:09:31;5.47;;;2.70;;
80565;SDS011;69915;54.862;10.730;2023-07-09T01:12:02;5.50;;;2.17;;
80565;SDS011;69915;54.862;10.730;2023-07-09T01:14:32;5.05;;;1.88;;
80565;SDS011;69915;54.862;10.730;2023-07-09T01:17:05;4.72;;;2.70;;
80565;SDS011;69915;54.862;10.730;2023-07-09T01:19:38;5.13;;;2.13;;
80565;SDS011;69915;54.862;10.730;2023-07-09T01:22:08;5.47;;;2.10;;
80565;SDS011;69915;54.862;10.730;2023-07-09T01:27:29;5.05;;;2.60;;
80565;SDS011;69915;54.862;10.730;2023-07-09T01:29:59;7.18;;;2.13;;
80565;SDS011;69915;54.862;10.730;2023-07-09T01:32:27;7.03;;;2.53;;
80565;SDS011;69915;54.862;10.730;2023-07-09T01:34:54;5.78;;;2.70;;
80565;SDS011;69915;54.862;10.730;2023-07-09T01:37:24;6.13;;;3.25;;
80565;SDS011;69915;54.862;10.730;2023-07-09T01:39:52;5.72;;;2.90;;
80565;SDS011;69915;54.862;10.730;2023-07-09T01:42:18;5.75;;;3.33;;
80565;SDS011;69915;54.862;10.730;2023-07-09T01:44:49;8.25;;;2.85;;
80565;SDS011;69915;54.862;10.730;2023-07-09T01:47:16;7.18;;;3.80;;
80565;SDS011;69915;54.862;10.730;2023-07-09T01:49:43;6.10;;;3.72;;
80565;SDS011;69915;54.862;10.730;2023-07-09T01:52:11;7.82;;;3.42;;
80565;SDS011;69915;54.862;10.730;2023-07-09T01:54:41;7.07;;;2.88;;
80565;SDS011;69915;54.862;10.730;2023-07-09T01:57:18;5.47;;;3.00;;
80565;SDS011;69915;54.862;10.730;2023-07-09T01:59:48;6.57;;;3.42;;
80565;SDS011;69915;54.862;10.730;2023-07-09T02:02:20;6.70;;;3.03;;
80565;SDS011;69915;54.862;10.730;2023-07-09T02:04:47;4.95;;;2.40;;
80565;SDS011;69915;54.862;10.730;2023-07-09T02:07:17;6.95;;;2.78;;
80565;SDS011;69915;54.862;10.730;2023-07-09T02:09:44;5.95;;;2.67;;
80565;SDS011;69915;54.862;10.730;2023-07-09T02:12:10;6.70;;;3.05;;
80565;SDS011;69915;54.862;10.730;2023-07-09T02:14:37;5.47;;;2.70;;
80565;SDS011;69915;54.862;10.730;2023-07-09T02:17:04;6.70;;;2.63;;
80565;SDS011;69915;54.862;10.730;2023-07-09T02:19:42;4.60;;;2.55;;
80565;SDS011;69915;54.862;10.730;2023-07-09T02:22:12;4.80;;;2.10;;
80565;SDS011;69915;54.862;10.730;2023-07-09T02:24:38;9.68;;;2.85;;
80565;SDS011;69915;54.862;10.730;2023-07-09T02:27:05;5.25;;;3.47;;
80565;SDS011;69915;54.862;10.730;2023-07-09T02:29:32;5.25;;;2.50;;
80565;SDS011;69915;54.862;10.730;2023-07-09T02:31:58;5.70;;;2.60;;
80565;SDS011;69915;54.862;10.730;2023-07-09T02:34:26;5.20;;;2.63;;
80565;SDS011;69915;54.862;10.730;2023-07-09T02:36:53;4.72;;;2.70;;
80565;SDS011;69915;54.862;10.730;2023-07-09T02:39:19;5.82;;;2.67;;
80565;SDS011;69915;54.862;10.730;2023-07-09T02:41:45;5.07;;;2.78;;
80565;SDS011;69915;54.862;10.730;2023-07-09T02:44:11;4.10;;;2.30;;
80565;SDS011;69915;54.862;10.730;2023-07-09T02:46:36;4.50;;;2.17;;
80565;SDS011;69915;54.862;10.730;2023-07-09T02:49:03;4.85;;;2.50;;
80565;SDS011;69915;54.862;10.730;2023-07-09T02:51:30;4.93;;;2.33;;
80565;SDS011;69915;54.862;10.730;2023-07-09T02:53:57;5.20;;;2.13;;
80565;SDS011;69915;54.862;10.730;2023-07-09T02:56:23;6.18;;;2.85;;
80565;SDS011;69915;54.862;10.730;2023-07-09T02:58:49;4.18;;;2.40;;
80565;SDS011;69915;54.862;10.730;2023-07-09T03:01:16;6.05;;;2.22;;
80565;SDS011;69915;54.862;10.730;2023-07-09T03:03:42;5.32;;;2.05;;
80565;SDS011;69915;54.862;10.730;2023-07-09T03:06:08;6.43;;;2.65;;
80565;SDS011;69915;54.862;10.730;2023-07-09T03:08:34;4.43;;;2.47;;
80565;SDS011;69915;54.862;10.730;2023-07-09T03:11:00;4.55;;;2.60;;
80565;SDS011;69915;54.862;10.730;2023-07-09T03:13:34;4.82;;;2.60;;
80565;SDS011;69915;54.862;10.730;2023-07-09T03:16:00;5.30;;;2.55;;
80565;SDS011;69915;54.862;10.730;2023-07-09T03:18:25;5.43;;;2.88;;
80565;SDS011;69915;54.862;10.730;2023-07-09T03:20:51;5.18;;;2.40;;
80565;SDS011;69915;54.862;10.730;2023-07-09T03:23:16;5.45;;;2.42;;
80565;SDS011;69915;54.862;10.730;2023-07-09T03:25:43;7.72;;;2.60;;
80565;SDS011;69915;54.862;10.730;2023-07-09T03:28:09;4.97;;;2.17;;
80565;SDS011;69915;54.862;10.730;2023-07-09T03:30:40;7.40;;;2.60;;
80565;SDS011;69915;54.862;10.730;2023-07-09T03:33:06;6.07;;;2.58;;
80565;SDS011;69915;54.862;10.730;2023-07-09T03:35:32;4.85;;;2.33;;
80565;SDS011;69915;54.862;10.730;2023-07-09T03:38:00;6.20;;;2.72;;
80565;SDS011;69915;54.862;10.730;2023-07-09T03:40:25;4.43;;;2.33;;
80565;SDS011;69915;54.862;10.730;2023-07-09T03:42:51;3.90;;;2.47;;
80565;SDS011;69915;54.862;10.730;2023-07-09T03:45:17;5.25;;;1.98;;
80565;SDS011;69915;54.862;10.730;2023-07-09T03:47:42;5.40;;;2.38;;
80565;SDS011;69915;54.862;10.730;2023-07-09T03:50:09;5.40;;;2.33;;
80565;SDS011;69915;54.862;10.730;2023-07-09T03:52:36;3.35;;;2.08;;
80565;SDS011;69915;54.862;10.730;2023-07-09T03:55:02;4.53;;;2.38;;
80565;SDS011;69915;54.862;10.730;2023-07-09T03:57:32;4.80;;;2.33;;
80565;SDS011;69915;54.862;10.730;2023-07-09T03:59:58;4.15;;;1.90;;
80565;SDS011;69915;54.862;10.730;2023-07-09T04:02:23;5.45;;;2.53;;
80565;SDS011;69915;54.862;10.730;2023-07-09T04:04:49;5.68;;;2.40;;
80565;SDS011;69915;54.862;10.730;2023-07-09T04:07:15;6.32;;;2.60;;
80565;SDS011;69915;54.862;10.730;2023-07-09T04:09:41;6.63;;;2.13;;
80565;SDS011;69915;54.862;10.730;2023-07-09T04:12:07;4.45;;;2.20;;
80565;SDS011;69915;54.862;10.730;2023-07-09T04:14:34;4.25;;;2.17;;
80565;SDS011;69915;54.862;10.730;2023-07-09T04:16:59;3.70;;;2.42;;
80565;SDS011;69915;54.862;10.730;2023-07-09T04:19:25;5.05;;;2.28;;
80565;SDS011;69915;54.862;10.730;2023-07-09T04:21:51;4.20;;;1.73;;
80565;SDS011;69915;54.862;10.730;2023-07-09T04:24:17;7.07;;;2.70;;
80565;SDS011;69915;54.862;10.730;2023-07-09T04:26:44;4.18;;;2.28;;
80565;SDS011;69915;54.862;10.730;2023-07-09T04:29:10;6.18;;;2.47;;
80565;SDS011;69915;54.862;10.730;2023-07-09T04:31:38;6.40;;;2.42;;
80565;SDS011;69915;54.862;10.730;2023-07-09T04:34:04;4.20;;;2.17;;
80565;SDS011;69915;54.862;10.730;2023-07-09T04:36:30;4.63;;;2.50;;
80565;SDS011;69915;54.862;10.730;2023-07-09T04:38:56;4.45;;;1.95;;
80565;SDS011;69915;54.862;10.730;2023-07-09T04:41:22;5.05;;;2.10;;
80565;SDS011;69915;54.862;10.730;2023-07-09T04:43:48;5.25;;;1.88;;
80565;SDS011;69915;54.862;10.730;2023-07-09T04:46:14;4.03;;;2.08;;
80565;SDS011;69915;54.862;10.730;2023-07-09T04:48:40;5.05;;;2.50;;
80565;SDS011;69915;54.862;10.730;2023-07-09T04:51:05;5.28;;;2.20;;
80565;SDS011;69915;54.862;10.730;2023-07-09T04:53:31;5.85;;;2.15;;
80565;SDS011;69915;54.862;10.730;2023-07-09T04:55:57;4.85;;;1.90;;
80565;SDS011;69915;54.862;10.730;2023-07-09T04:58:23;5.50;;;2.05;;
80565;SDS011;69915;54.862;10.730;2023-07-09T05:00:48;5.80;;;2.17;;
80565;SDS011;69915;54.862;10.730;2023-07-09T05:03:16;3.33;;;1.63;;
80565;SDS011;69915;54.862;10.730;2023-07-09T05:05:46;5.75;;;2.08;;
80565;SDS011;69915;54.862;10.730;2023-07-09T05:08:12;3.65;;;1.95;;
80565;SDS011;69915;54.862;10.730;2023-07-09T05:10:42;3.28;;;1.45;;
80565;SDS011;69915;54.862;10.730;2023-07-09T05:13:09;3.60;;;1.77;;
80565;SDS011;69915;54.862;10.730;2023-07-09T05:15:35;5.80;;;2.30;;
80565;SDS011;69915;54.862;10.730;2023-07-09T05:18:04;5.88;;;2.35;;
80565;SDS011;69915;54.862;10.730;2023-07-09T05:20:30;5.50;;;1.75;;
80565;SDS011;69915;54.862;10.730;2023-07-09T05:22:56;4.18;;;2.15;;
80565;SDS011;69915;54.862;10.730;2023-07-09T05:25:21;4.10;;;1.92;;
80565;SDS011;69915;54.862;10.730;2023-07-09T05:27:47;5.25;;;1.73;;
80565;SDS011;69915;54.862;10.730;2023-07-09T05:30:12;3.30;;;1.73;;
80565;SDS011;69915;54.862;10.730;2023-07-09T05:32:38;3.45;;;1.75;;
80565;SDS011;69915;54.862;10.730;2023-07-09T05:35:04;3.55;;;1.80;;
80565;SDS011;69915;54.862;10.730;2023-07-09T05:37:30;6.00;;;2.05;;
80565;SDS011;69915;54.862;10.730;2023-07-09T05:39:55;4.85;;;2.03;;
80565;SDS011;69915;54.862;10.730;2023-07-09T05:42:21;4.03;;;2.00;;
80565;SDS011;69915;54.862;10.730;2023-07-09T05:44:47;12.57;;;2.00;;
80565;SDS011;69915;54.862;10.730;2023-07-09T05:47:13;4.05;;;2.03;;
80565;SDS011;69915;54.862;10.730;2023-07-09T05:49:38;3.90;;;1.63;;
80565;SDS011;69915;54.862;10.730;2023-07-09T05:52:04;3.10;;;1.60;;
80565;SDS011;69915;54.862;10.730;2023-07-09T05:54:30;4.20;;;1.58;;
80565;SDS011;69915;54.862;10.730;2023-07-09T05:56:56;3.40;;;1.75;;
80565;SDS011;69915;54.862;10.730;2023-07-09T05:59:22;3.47;;;1.58;;
80565;SDS011;69915;54.862;10.730;2023-07-09T06:01:47;4.80;;;1.83;;
80565;SDS011;69915;54.862;10.730;2023-07-09T06:04:13;3.53;;;1.67;;
80565;SDS011;69915;54.862;10.730;2023-07-09T06:06:39;3.85;;;1.90;;
80565;SDS011;69915;54.862;10.730;2023-07-09T06:09:07;3.47;;;1.63;;
80565;SDS011;69915;54.862;10.730;2023-07-09T06:11:33;5.38;;;2.08;;
80565;SDS011;69915;54.862;10.730;2023-07-09T06:13:59;4.97;;;1.60;;
80565;SDS011;69915;54.862;10.730;2023-07-09T06:16:26;5.47;;;1.60;;
80565;SDS011;69915;54.862;10.730;2023-07-09T06:18:52;3.67;;;1.50;;
80565;SDS011;69915;54.862;10.730;2023-07-09T06:21:18;3.17;;;1.42;;
80565;SDS011;69915;54.862;10.730;2023-07-09T06:23:44;4.57;;;1.40;;
80565;SDS011;69915;54.862;10.730;2023-07-09T06:26:11;3.65;;;1.55;;
80565;SDS011;69915;54.862;10.730;2023-07-09T06:28:37;5.00;;;1.83;;
80565;SDS011;69915;54.862;10.730;2023-07-09T06:31:03;4.22;;;1.90;;
80565;SDS011;69915;54.862;10.730;2023-07-09T06:33:28;3.95;;;2.22;;
80565;SDS011;69915;54.862;10.730;2023-07-09T06:35:56;3.75;;;1.60;;
80565;SDS011;69915;54.862;10.730;2023-07-09T06:38:23;4.00;;;1.63;;
80565;SDS011;69915;54.862;10.730;2023-07-09T06:40:50;4.90;;;1.80;;
80565;SDS011;69915;54.862;10.730;2023-07-09T06:43:16;6.25;;;1.83;;
80565;SDS011;69915;54.862;10.730;2023-07-09T06:45:55;4.22;;;1.80;;
80565;SDS011;69915;54.862;10.730;2023-07-09T06:48:23;5.32;;;2.30;;
80565;SDS011;69915;54.862;10.730;2023-07-09T06:50:50;4.35;;;1.85;;
80565;SDS011;69915;54.862;10.730;2023-07-09T06:53:17;3.10;;;1.40;;
80565;SDS011;69915;54.862;10.730;2023-07-09T06:55:42;2.70;;;1.23;;
80565;SDS011;69915;54.862;10.730;2023-07-09T06:58:08;4.50;;;1.75;;
80565;SDS011;69915;54.862;10.730;2023-07-09T07:00:35;2.78;;;1.42;;
80565;SDS011;69915;54.862;10.730;2023-07-09T07:03:01;3.78;;;1.60;;
80565;SDS011;69915;54.862;10.730;2023-07-09T07:05:27;3.55;;;1.40;;
80565;SDS011;69915;54.862;10.730;2023-07-09T07:07:53;4.50;;;1.67;;
80565;SDS011;69915;54.862;10.730;2023-07-09T07:10:19;3.88;;;1.80;;
80565;SDS011;69915;54.862;10.730;2023-07-09T07:12:46;4.93;;;1.65;;
80565;SDS011;69915;54.862;10.730;2023-07-09T07:15:14;4.05;;;1.67;;
80565;SDS011;69915;54.862;10.730;2023-07-09T07:17:42;4.85;;;1.70;;
80565;SDS011;69915;54.862;10.730;2023-07-09T07:20:08;4.40;;;1.60;;
80565;SDS011;69915;54.862;10.730;2023-07-09T07:22:36;5.55;;;1.60;;
80565;SDS011;69915;54.862;10.730;2023-07-09T07:25:03;4.35;;;1.50;;
80565;SDS011;69915;54.862;10.730;2023-07-09T07:27:30;4.45;;;1.60;;
80565;SDS011;69915;54.862;10.730;2023-07-09T07:29:56;3.97;;;1.38;;
80565;SDS011;69915;54.862;10.730;2023-07-09T07:32:21;3.47;;;1.50;;
80565;SDS011;69915;54.862;10.730;2023-07-09T07:34:47;5.30;;;1.75;;
80565;SDS011;69915;54.862;10.730;2023-07-09T07:37:13;2.67;;;1.25;;
80565;SDS011;69915;54.862;10.730;2023-07-09T07:39:39;4.55;;;1.40;;
80565;SDS011;69915;54.862;10.730;2023-07-09T07:42:06;3.15;;;1.48;;
80565;SDS011;69915;54.862;10.730;2023-07-09T07:44:32;2.65;;;1.20;;
80565;SDS011;69915;54.862;10.730;2023-07-09T07:46:57;3.25;;;1.30;;
80565;SDS011;69915;54.862;10.730;2023-07-09T07:49:23;4.32;;;1.05;;
80565;SDS011;69915;54.862;10.730;2023-07-09T07:51:48;2.95;;;1.17;;
80565;SDS011;69915;54.862;10.730;2023-07-09T07:54:14;2.92;;;1.33;;
80565;SDS011;69915;54.862;10.730;2023-07-09T07:56:40;4.25;;;1.33;;
80565;SDS011;69915;54.862;10.730;2023-07-09T07:59:06;3.00;;;1.30;;
80565;SDS011;69915;54.862;10.730;2023-07-09T08:01:32;3.58;;;1.35;;
80565;SDS011;69915;54.862;10.730;2023-07-09T08:04:01;2.97;;;1.15;;
80565;SDS011;69915;54.862;10.730;2023-07-09T08:06:27;3.13;;;1.10;;
80565;SDS011;69915;54.862;10.730;2023-07-09T08:08:53;2.65;;;0.90;;
80565;SDS011;69915;54.862;10.730;2023-07-09T08:11:18;1.90;;;0.98;;
80565;SDS011;69915;54.862;10.730;2023-07-09T08:13:44;2.70;;;0.98;;
80565;SDS011;69915;54.862;10.730;2023-07-09T08:16:10;4.25;;;0.93;;
80565;SDS011;69915;54.862;10.730;2023-07-09T08:18:39;3.05;;;1.10;;
80565;SDS011;69915;54.862;10.730;2023-07-09T08:21:04;3.28;;;1.00;;
80565;SDS011;69915;54.862;10.730;2023-07-09T08:23:30;2.58;;;0.90;;
80565;SDS011;69915;54.862;10.730;2023-07-09T08:25:56;3.30;;;1.00;;
80565;SDS011;69915;54.862;10.730;2023-07-09T08:28:23;2.38;;;0.90;;
80565;SDS011;69915;54.862;10.730;2023-07-09T08:30:51;7.28;;;2.13;;
80565;SDS011;69915;54.862;10.730;2023-07-09T08:33:18;4.43;;;1.20;;
80565;SDS011;69915;54.862;10.730;2023-07-09T08:35:43;3.58;;;1.10;;
80565;SDS011;69915;54.862;10.730;2023-07-09T08:38:09;2.40;;;0.90;;
80565;SDS011;69915;54.862;10.730;2023-07-09T08:40:41;4.93;;;1.13;;
80565;SDS011;69915;54.862;10.730;2023-07-09T08:43:18;2.95;;;0.93;;
80565;SDS011;69915;54.862;10.730;2023-07-09T08:46:01;3.08;;;1.17;;
80565;SDS011;69915;54.862;10.730;2023-07-09T08:48:36;3.50;;;1.20;;
80565;SDS011;69915;54.862;10.730;2023-07-09T08:51:10;3.20;;;1.17;;
80565;SDS011;69915;54.862;10.730;2023-07-09T08:53:49;2.22;;;1.02;;
80565;SDS011;69915;54.862;10.730;2023-07-09T08:56:18;3.13;;;1.40;;
80565;SDS011;69915;54.862;10.730;2023-07-09T08:58:46;3.22;;;1.30;;
80565;SDS011;69915;54.862;10.730;2023-07-09T09:01:25;3.30;;;1.30;;
80565;SDS011;69915;54.862;10.730;2023-07-09T09:03:59;3.17;;;1.30;;
80565;SDS011;69915;54.862;10.730;2023-07-09T09:06:30;5.93;;;1.50;;
80565;SDS011;69915;54.862;10.730;2023-07-09T09:09:02;2.80;;;1.25;;
80565;SDS011;69915;54.862;10.730;2023-07-09T09:14:33;4.55;;;1.30;;
80565;SDS011;69915;54.862;10.730;2023-07-09T09:19:33;3.17;;;1.50;;
80565;SDS011;69915;54.862;10.730;2023-07-09T09:22:54;2.55;;;1.25;;
80565;SDS011;69915;54.862;10.730;2023-07-09T09:25:41;3.45;;;1.40;;
80565;SDS011;69915;54.862;10.730;2023-07-09T09:28:47;3.90;;;1.13;;
80565;SDS011;69915;54.862;10.730;2023-07-09T09:31:17;5.80;;;1.48;;
80565;SDS011;69915;54.862;10.730;2023-07-09T09:36:36;4.28;;;1.40;;
80565;SDS011;69915;54.862;10.730;2023-07-09T09:39:08;2.72;;;1.25;;
80565;SDS011;69915;54.862;10.730;2023-07-09T09:41:38;5.90;;;1.75;;
80565;SDS011;69915;54.862;10.730;2023-07-09T09:44:17;9.13;;;1.30;;
80565;SDS011;69915;54.862;10.730;2023-07-09T09:46:58;3.28;;;1.33;;
80565;SDS011;69915;54.862;10.730;2023-07-09T09:49:43;4.18;;;1.42;;
80565;SDS011;69915;54.862;10.730;2023-07-09T09:52:14;3.97;;;1.40;;
80565;SDS011;69915;54.862;10.730;2023-07-09T09:55:02;3.35;;;1.42;;
80565;SDS011;69915;54.862;10.730;2023-07-09T09:57:38;4.18;;;1.38;;
80565;SDS011;69915;54.862;10.730;2023-07-09T10:00:13;5.30;;;1.70;;
80565;SDS011;69915;54.862;10.730;2023-07-09T10:02:50;3.70;;;1.30;;
80565;SDS011;69915;54.862;10.730;2023-07-09T10:05:31;3.47;;;1.52;;
80565;SDS011;69915;54.862;10.730;2023-07-09T10:08:16;3.47;;;1.63;;
80565;SDS011;69915;54.862;10.730;2023-07-09T10:10:50;4.15;;;1.20;;
80565;SDS011;69915;54.862;10.730;2023-07-09T10:13:25;4.18;;;1.15;;
80565;SDS011;69915;54.862;10.730;2023-07-09T10:16:21;3.85;;;1.48;;
80565;SDS011;69915;54.862;10.730;2023-07-09T10:21:58;4.43;;;1.73;;
80565;SDS011;69915;54.862;10.730;2023-07-09T10:24:37;3.17;;;1.17;;
80565;SDS011;69915;54.862;10.730;2023-07-09T10:27:42;4.80;;;1.30;;
80565;SDS011;69915;54.862;10.730;2023-07-09T10:33:49;4.65;;;1.42;;
80565;SDS011;69915;54.862;10.730;2023-07-09T10:36:46;3.20;;;1.50;;
80565;SDS011;69915;54.862;10.730;2023-07-09T10:39:56;3.33;;;1.25;;
80565;SDS011;69915;54.862;10.730;2023-07-09T10:42:25;3.70;;;1.10;;
80565;SDS011;69915;54.862;10.730;2023-07-09T10:45:07;3.63;;;1.10;;
80565;SDS011;69915;54.862;10.730;2023-07-09T10:47:41;3.30;;;1.35;;
80565;SDS011;69915;54.862;10.730;2023-07-09T10:50:31;3.45;;;1.40;;
80565;SDS011;69915;54.862;10.730;2023-07-09T10:55:56;4.60;;;1.30;;
80565;SDS011;69915;54.862;10.730;2023-07-09T11:01:41;3.72;;;1.40;;
80565;SDS011;69915;54.862;10.730;2023-07-09T11:04:15;3.47;;;1.40;;
80565;SDS011;69915;54.862;10.730;2023-07-09T11:06:44;3.70;;;1.80;;
80565;SDS011;69915;54.862;10.730;2023-07-09T11:09:36;4.03;;;1.55;;
80565;SDS011;69915;54.862;10.730;2023-07-09T11:15:25;4.03;;;1.40;;
80565;SDS011;69915;54.862;10.730;2023-07-09T11:17:56;3.28;;;1.23;;
80565;SDS011;69915;54.862;10.730;2023-07-09T11:20:25;3.45;;;1.38;;
80565;SDS011;69915;54.862;10.730;2023-07-09T11:23:36;4.47;;;1.50;;
80565;SDS011;69915;54.862;10.730;2023-07-09T11:31:44;4.00;;;1.90;;
80565;SDS011;69915;54.862;10.730;2023-07-09T11:42:34;3.80;;;1.40;;
80565;SDS011;69915;54.862;10.730;2023-07-09T11:45:15;4.35;;;1.70;;
80565;SDS011;69915;54.862;10.730;2023-07-09T11:51:18;3.13;;;1.40;;
80565;SDS011;69915;54.862;10.730;2023-07-09T11:53:52;2.88;;;1.70;;
80565;SDS011;69915;54.862;10.730;2023-07-09T11:56:23;2.65;;;1.17;;
80565;SDS011;69915;54.862;10.730;2023-07-09T11:58:51;3.92;;;1.70;;
80565;SDS011;69915;54.862;10.730;2023-07-09T12:01:22;3.83;;;1.33;;
80565;SDS011;69915;54.862;10.730;2023-07-09T12:03:58;4.32;;;1.50;;
80565;SDS011;69915;54.862;10.730;2023-07-09T12:06:31;3.22;;;1.23;;
80565;SDS011;69915;54.862;10.730;2023-07-09T12:09:37;4.38;;;1.63;;
80565;SDS011;69915;54.862;10.730;2023-07-09T12:11:58;4.32;;;1.15;;
80565;SDS011;69915;54.862;10.730;2023-07-09T12:14:24;3.58;;;1.33;;
80565;SDS011;69915;54.862;10.730;2023-07-09T12:16:50;5.15;;;1.60;;
80565;SDS011;69915;54.862;10.730;2023-07-09T12:19:21;3.40;;;1.48;;
80565;SDS011;69915;54.862;10.730;2023-07-09T12:21:56;2.55;;;1.52;;
80565;SDS011;69915;54.862;10.730;2023-07-09T12:24:24;3.42;;;1.30;;
80565;SDS011;69915;54.862;10.730;2023-07-09T12:27:02;4.15;;;1.60;;
80565;SDS011;69915;54.862;10.730;2023-07-09T12:29:42;2.50;;;1.15;;
80565;SDS011;69915;54.862;10.730;2023-07-09T12:32:12;2.17;;;0.93;;
80565;SDS011;69915;54.862;10.730;2023-07-09T12:34:58;3.45;;;1.35;;
80565;SDS011;69915;54.862;10.730;2023-07-09T12:37:24;5.20;;;1.65;;
80565;SDS011;69915;54.862;10.730;2023-07-09T12:39:53;4.20;;;1.80;;
80565;SDS011;69915;54.862;10.730;2023-07-09T12:42:21;3.35;;;1.40;;
80565;SDS011;69915;54.862;10.730;2023-07-09T12:45:16;2.00;;;1.00;;
80565;SDS011;69915;54.862;10.730;2023-07-09T12:47:50;2.42;;;1.08;;
80565;SDS011;69915;54.862;10.730;2023-07-09T12:50:28;5.07;;;1.40;;
80565;SDS011;69915;54.862;10.730;2023-07-09T12:53:00;4.60;;;1.05;;
80565;SDS011;69915;54.862;10.730;2023-07-09T12:55:37;2.85;;;1.15;;
80565;SDS011;69915;54.862;10.730;2023-07-09T12:58:20;8.00;;;1.70;;
80565;SDS011;69915;54.862;10.730;2023-07-09T13:00:57;3.92;;;1.23;;
80565;SDS011;69915;54.862;10.730;2023-07-09T13:03:31;2.40;;;1.08;;
80565;SDS011;69915;54.862;10.730;2023-07-09T13:06:05;2.42;;;1.10;;
80565;SDS011;69915;54.862;10.730;2023-07-09T13:08:42;2.72;;;1.30;;
80565;SDS011;69915;54.862;10.730;2023-07-09T13:11:17;2.88;;;1.13;;
80565;SDS011;69915;54.862;10.730;2023-07-09T13:14:05;4.22;;;1.60;;
80565;SDS011;69915;54.862;10.730;2023-07-09T13:16:39;2.90;;;1.17;;
80565;SDS011;69915;54.862;10.730;2023-07-09T13:19:06;2.25;;;1.05;;
80565;SDS011;69915;54.862;10.730;2023-07-09T13:21:32;2.78;;;1.10;;
80565;SDS011;69915;54.862;10.730;2023-07-09T13:23:57;5.00;;;1.15;;
80565;SDS011;69915;54.862;10.730;2023-07-09T13:26:24;4.72;;;1.23;;
80565;SDS011;69915;54.862;10.730;2023-07-09T13:28:49;3.40;;;1.25;;
80565;SDS011;69915;54.862;10.730;2023-07-09T13:31:18;2.95;;;1.23;;
80565;SDS011;69915;54.862;10.730;2023-07-09T13:36:30;2.88;;;1.27;;
80565;SDS011;69915;54.862;10.730;2023-07-09T13:38:55;4.35;;;1.10;;
80565;SDS011;69915;54.862;10.730;2023-07-09T13:41:21;5.68;;;1.20;;
80565;SDS011;69915;54.862;10.730;2023-07-09T13:43:50;2.85;;;1.10;;
80565;SDS011;69915;54.862;10.730;2023-07-09T13:46:18;4.18;;;1.65;;
80565;SDS011;69915;54.862;10.730;2023-07-09T13:48:44;3.15;;;1.30;;
80565;SDS011;69915;54.862;10.730;2023-07-09T13:51:15;3.72;;;1.27;;
80565;SDS011;69915;54.862;10.730;2023-07-09T13:53:45;4.75;;;1.20;;
80565;SDS011;69915;54.862;10.730;2023-07-09T13:56:22;2.20;;;0.95;;
80565;SDS011;69915;54.862;10.730;2023-07-09T13:58:49;4.25;;;1.33;;
80565;SDS011;69915;54.862;10.730;2023-07-09T14:01:20;3.05;;;1.50;;
80565;SDS011;69915;54.862;10.730;2023-07-09T14:03:48;3.03;;;1.00;;
80565;SDS011;69915;54.862;10.730;2023-07-09T14:06:16;3.88;;;1.20;;
80565;SDS011;69915;54.862;10.730;2023-07-09T14:08:49;3.10;;;1.00;;
80565;SDS011;69915;54.862;10.730;2023-07-09T14:11:16;2.78;;;1.10;;
80565;SDS011;69915;54.862;10.730;2023-07-09T14:13:42;3.63;;;1.20;;
80565;SDS011;69915;54.862;10.730;2023-07-09T14:16:09;2.17;;;0.90;;
80565;SDS011;69915;54.862;10.730;2023-07-09T14:18:36;3.58;;;1.30;;
80565;SDS011;69915;54.862;10.730;2023-07-09T14:21:09;7.65;;;1.55;;
80565;SDS011;69915;54.862;10.730;2023-07-09T14:23:42;3.35;;;1.20;;
80565;SDS011;69915;54.862;10.730;2023-07-09T14:26:09;4.00;;;1.50;;
80565;SDS011;69915;54.862;10.730;2023-07-09T14:28:38;2.88;;;1.10;;
80565;SDS011;69915;54.862;10.730;2023-07-09T14:31:13;3.28;;;1.25;;
80565;SDS011;69915;54.862;10.730;2023-07-09T14:34:04;3.83;;;1.00;;
80565;SDS011;69915;54.862;10.730;2023-07-09T14:36:55;2.70;;;1.02;;
80565;SDS011;69915;54.862;10.730;2023-07-09T14:39:22;2.33;;;0.98;;
80565;SDS011;69915;54.862;10.730;2023-07-09T14:41:49;3.53;;;1.30;;
80565;SDS011;69915;54.862;10.730;2023-07-09T14:44:19;3.15;;;1.17;;
80565;SDS011;69915;54.862;10.730;2023-07-09T14:47:04;2.50;;;1.10;;
80565;SDS011;69915;54.862;10.730;2023-07-09T14:49:39;4.65;;;1.15;;
80565;SDS011;69915;54.862;10.730;2023-07-09T14:52:08;3.72;;;1.27;;
80565;SDS011;69915;54.862;10.730;2023-07-09T14:54:40;2.75;;;1.10;;
80565;SDS011;69915;54.862;10.730;2023-07-09T14:57:11;3.25;;;1.33;;
80565;SDS011;69915;54.862;10.730;2023-07-09T14:59:48;5.63;;;1.20;;
80565;SDS011;69915;54.862;10.730;2023-07-09T15:02:22;3.25;;;1.38;;
80565;SDS011;69915;54.862;10.730;2023-07-09T15:04:57;3.60;;;1.33;;
80565;SDS011;69915;54.862;10.730;2023-07-09T15:07:23;2.90;;;1.27;;
80565;SDS011;69915;54.862;10.730;2023-07-09T15:09:54;3.25;;;1.23;;
80565;SDS011;69915;54.862;10.730;2023-07-09T15:12:27;3.10;;;1.50;;
80565;SDS011;69915;54.862;10.730;2023-07-09T15:14:58;3.45;;;1.30;;
80565;SDS011;69915;54.862;10.730;2023-07-09T15:17:45;3.80;;;1.40;;
80565;SDS011;69915;54.862;10.730;2023-07-09T15:20:22;2.83;;;1.13;;
80565;SDS011;69915;54.862;10.730;2023-07-09T15:22:54;3.47;;;1.30;;
80565;SDS011;69915;54.862;10.730;2023-07-09T15:25:23;4.20;;;1.42;;
80565;SDS011;69915;54.862;10.730;2023-07-09T15:27:51;3.40;;;1.25;;
80565;SDS011;69915;54.862;10.730;2023-07-09T15:30:18;3.10;;;1.50;;
80565;SDS011;69915;54.862;10.730;2023-07-09T15:32:47;3.53;;;1.33;;
80565;SDS011;69915;54.862;10.730;2023-07-09T15:37:47;2.63;;;1.25;;
80565;SDS011;69915;54.862;10.730;2023-07-09T15:40:20;3.08;;;1.48;;
80565;SDS011;69915;54.862;10.730;2023-07-09T15:42:49;2.70;;;1.40;;
80565;SDS011;69915;54.862;10.730;2023-07-09T15:45:19;2.97;;;1.30;;